Terminal Aerodrome Forecast
Issued by NWS Charleston, WV

Home | Current Version | Previous Version | Text Only | Print | Product List | Glossary On
Versions: 1 2 3 4 5 6 7 8 9 10 11 12 13 14 15 16 17 18 19 20 21 22 23 24 25 26 27 28 29 30
000
FTUS41 KRLX 211741
TAFBKW
TAF
KBKW 211741Z 2118/2218 35004KT P6SM SCT020 BKN040
     FM211900 35004KT P6SM VCTS SCT020 BKN040CB
     FM212100 34005KT P6SM SCT040
     FM220200 04003KT P6SM FEW040
     FM220900 09003KT 5SM BR SCT002
     FM221100 00000KT 1/4SM FG OVC001
     FM221200 13003KT 2SM BR BKN002
     FM221300 00000KT P6SM FEW040=

USA.gov is the U.S. government's official web portal to all federal, state and local government web resources and services.